sensor_id;sensor_type;location;lat;lon;timestamp;P1;durP1;ratioP1;P2;durP2;ratioP2
25846;SDS011;13676;50.168;8.568;2023-06-22T00:02:16;4.75;;;3.78;;
25846;SDS011;13676;50.168;8.568;2023-06-22T00:04:42;4.90;;;4.18;;
25846;SDS011;13676;50.168;8.568;2023-06-22T00:07:07;4.00;;;3.50;;
25846;SDS011;13676;50.168;8.568;2023-06-22T00:09:33;5.93;;;3.92;;
25846;SDS011;13676;50.168;8.568;2023-06-22T00:11:59;4.20;;;3.80;;
25846;SDS011;13676;50.168;8.568;2023-06-22T00:14:24;4.95;;;3.70;;
25846;SDS011;13676;50.168;8.568;2023-06-22T00:16:51;4.60;;;3.90;;
25846;SDS011;13676;50.168;8.568;2023-06-22T00:19:20;3.60;;;3.30;;
25846;SDS011;13676;50.168;8.568;2023-06-22T00:21:47;3.73;;;3.33;;
25846;SDS011;13676;50.168;8.568;2023-06-22T00:24:13;4.20;;;3.70;;
25846;SDS011;13676;50.168;8.568;2023-06-22T00:26:38;4.25;;;3.67;;
25846;SDS011;13676;50.168;8.568;2023-06-22T00:29:04;4.47;;;3.40;;
25846;SDS011;13676;50.168;8.568;2023-06-22T00:31:30;5.20;;;3.67;;
25846;SDS011;13676;50.168;8.568;2023-06-22T00:33:55;4.07;;;3.30;;
25846;SDS011;13676;50.168;8.568;2023-06-22T00:36:20;3.40;;;3.10;;
25846;SDS011;13676;50.168;8.568;2023-06-22T00:38:46;3.30;;;3.00;;
25846;SDS011;13676;50.168;8.568;2023-06-22T00:41:11;3.08;;;2.75;;
25846;SDS011;13676;50.168;8.568;2023-06-22T00:43:36;2.90;;;2.70;;
25846;SDS011;13676;50.168;8.568;2023-06-22T00:46:08;3.83;;;3.20;;
25846;SDS011;13676;50.168;8.568;2023-06-22T00:48:33;3.13;;;2.83;;
25846;SDS011;13676;50.168;8.568;2023-06-22T00:51:00;3.70;;;3.35;;
25846;SDS011;13676;50.168;8.568;2023-06-22T00:53:27;3.83;;;3.25;;
25846;SDS011;13676;50.168;8.568;2023-06-22T00:55:53;3.15;;;2.85;;
25846;SDS011;13676;50.168;8.568;2023-06-22T00:58:18;7.13;;;3.30;;
25846;SDS011;13676;50.168;8.568;2023-06-22T01:00:46;3.25;;;2.95;;
25846;SDS011;13676;50.168;8.568;2023-06-22T01:03:12;2.88;;;2.67;;
25846;SDS011;13676;50.168;8.568;2023-06-22T01:05:38;3.70;;;2.90;;
25846;SDS011;13676;50.168;8.568;2023-06-22T01:13:48;4.40;;;3.55;;
25846;SDS011;13676;50.168;8.568;2023-06-22T01:16:10;7.10;;;3.90;;
25846;SDS011;13676;50.168;8.568;2023-06-22T01:18:43;5.85;;;3.90;;
25846;SDS011;13676;50.168;8.568;2023-06-22T01:21:09;4.68;;;3.83;;
25846;SDS011;13676;50.168;8.568;2023-06-22T01:29:31;4.40;;;4.00;;
25846;SDS011;13676;50.168;8.568;2023-06-22T01:34:24;9.13;;;4.68;;
25846;SDS011;13676;50.168;8.568;2023-06-22T01:36:50;5.88;;;4.80;;
25846;SDS011;13676;50.168;8.568;2023-06-22T01:39:16;4.75;;;4.25;;
25846;SDS011;13676;50.168;8.568;2023-06-22T01:41:42;8.15;;;5.40;;
25846;SDS011;13676;50.168;8.568;2023-06-22T01:44:08;5.97;;;5.28;;
25846;SDS011;13676;50.168;8.568;2023-06-22T01:46:36;6.38;;;5.40;;
25846;SDS011;13676;50.168;8.568;2023-06-22T01:49:02;7.30;;;5.30;;
25846;SDS011;13676;50.168;8.568;2023-06-22T01:51:28;10.82;;;5.07;;
25846;SDS011;13676;50.168;8.568;2023-06-22T01:53:54;7.25;;;5.47;;
25846;SDS011;13676;50.168;8.568;2023-06-22T01:56:19;5.90;;;5.05;;
25846;SDS011;13676;50.168;8.568;2023-06-22T01:58:54;5.60;;;4.80;;
25846;SDS011;13676;50.168;8.568;2023-06-22T02:01:24;5.45;;;4.30;;
25846;SDS011;13676;50.168;8.568;2023-06-22T02:04:03;5.38;;;4.30;;
25846;SDS011;13676;50.168;8.568;2023-06-22T02:06:45;5.18;;;4.68;;
25846;SDS011;13676;50.168;8.568;2023-06-22T02:09:14;5.20;;;4.70;;
25846;SDS011;13676;50.168;8.568;2023-06-22T02:11:43;5.45;;;4.50;;
25846;SDS011;13676;50.168;8.568;2023-06-22T02:14:09;5.80;;;5.20;;
25846;SDS011;13676;50.168;8.568;2023-06-22T02:16:36;6.13;;;5.53;;
25846;SDS011;13676;50.168;8.568;2023-06-22T02:19:02;6.93;;;5.50;;
25846;SDS011;13676;50.168;8.568;2023-06-22T02:21:28;6.05;;;5.20;;
25846;SDS011;13676;50.168;8.568;2023-06-22T02:23:54;6.13;;;5.15;;
25846;SDS011;13676;50.168;8.568;2023-06-22T02:26:19;5.75;;;5.07;;
25846;SDS011;13676;50.168;8.568;2023-06-22T02:28:45;8.15;;;5.13;;
25846;SDS011;13676;50.168;8.568;2023-06-22T02:31:12;7.13;;;5.50;;
25846;SDS011;13676;50.168;8.568;2023-06-22T02:33:37;6.57;;;5.07;;
25846;SDS011;13676;50.168;8.568;2023-06-22T02:36:02;6.70;;;5.35;;
25846;SDS011;13676;50.168;8.568;2023-06-22T02:40:59;6.15;;;5.28;;
25846;SDS011;13676;50.168;8.568;2023-06-22T02:43:25;6.65;;;5.70;;
25846;SDS011;13676;50.168;8.568;2023-06-22T02:45:52;6.53;;;5.40;;
25846;SDS011;13676;50.168;8.568;2023-06-22T02:48:18;7.25;;;5.50;;
25846;SDS011;13676;50.168;8.568;2023-06-22T02:50:43;4.97;;;4.30;;
25846;SDS011;13676;50.168;8.568;2023-06-22T02:53:09;5.38;;;4.88;;
25846;SDS011;13676;50.168;8.568;2023-06-22T02:55:34;8.75;;;5.28;;
25846;SDS011;13676;50.168;8.568;2023-06-22T02:58:00;5.60;;;5.10;;
25846;SDS011;13676;50.168;8.568;2023-06-22T03:00:30;6.30;;;5.57;;
25846;SDS011;13676;50.168;8.568;2023-06-22T03:02:55;12.55;;;5.75;;
25846;SDS011;13676;50.168;8.568;2023-06-22T03:05:23;7.47;;;5.70;;
25846;SDS011;13676;50.168;8.568;2023-06-22T03:07:48;7.38;;;6.10;;
25846;SDS011;13676;50.168;8.568;2023-06-22T03:10:14;9.73;;;6.03;;
25846;SDS011;13676;50.168;8.568;2023-06-22T03:12:40;6.35;;;5.65;;
25846;SDS011;13676;50.168;8.568;2023-06-22T03:15:06;7.22;;;5.82;;
25846;SDS011;13676;50.168;8.568;2023-06-22T03:17:33;7.32;;;6.10;;
25846;SDS011;13676;50.168;8.568;2023-06-22T03:19:59;8.03;;;6.03;;
25846;SDS011;13676;50.168;8.568;2023-06-22T03:22:25;8.30;;;6.22;;
25846;SDS011;13676;50.168;8.568;2023-06-22T03:24:50;6.57;;;5.90;;
25846;SDS011;13676;50.168;8.568;2023-06-22T03:27:15;8.30;;;6.45;;
25846;SDS011;13676;50.168;8.568;2023-06-22T03:29:41;8.70;;;6.00;;
25846;SDS011;13676;50.168;8.568;2023-06-22T03:32:06;7.93;;;6.05;;
25846;SDS011;13676;50.168;8.568;2023-06-22T03:34:32;6.18;;;5.43;;
25846;SDS011;13676;50.168;8.568;2023-06-22T03:37:04;7.03;;;5.38;;
25846;SDS011;13676;50.168;8.568;2023-06-22T03:39:29;5.82;;;5.18;;
25846;SDS011;13676;50.168;8.568;2023-06-22T03:41:55;6.10;;;5.50;;
25846;SDS011;13676;50.168;8.568;2023-06-22T03:44:20;7.97;;;6.10;;
25846;SDS011;13676;50.168;8.568;2023-06-22T03:46:45;7.22;;;5.80;;
25846;SDS011;13676;50.168;8.568;2023-06-22T03:49:11;5.97;;;5.40;;
25846;SDS011;13676;50.168;8.568;2023-06-22T03:51:36;6.18;;;5.43;;
25846;SDS011;13676;50.168;8.568;2023-06-22T03:54:02;6.82;;;5.57;;
25846;SDS011;13676;50.168;8.568;2023-06-22T03:56:29;8.23;;;5.80;;
25846;SDS011;13676;50.168;8.568;2023-06-22T03:58:56;6.18;;;5.47;;
25846;SDS011;13676;50.168;8.568;2023-06-22T04:01:21;7.28;;;6.15;;
25846;SDS011;13676;50.168;8.568;2023-06-22T04:03:47;7.53;;;5.55;;
25846;SDS011;13676;50.168;8.568;2023-06-22T04:06:14;6.45;;;5.53;;
25846;SDS011;13676;50.168;8.568;2023-06-22T04:08:40;6.43;;;5.80;;
25846;SDS011;13676;50.168;8.568;2023-06-22T04:11:06;7.18;;;6.40;;
25846;SDS011;13676;50.168;8.568;2023-06-22T04:13:31;7.30;;;5.38;;
25846;SDS011;13676;50.168;8.568;2023-06-22T04:15:56;7.88;;;6.32;;
25846;SDS011;13676;50.168;8.568;2023-06-22T04:18:22;7.57;;;6.20;;
25846;SDS011;13676;50.168;8.568;2023-06-22T04:20:48;6.13;;;5.53;;
25846;SDS011;13676;50.168;8.568;2023-06-22T04:23:14;6.53;;;5.53;;
25846;SDS011;13676;50.168;8.568;2023-06-22T04:25:39;7.30;;;5.50;;
25846;SDS011;13676;50.168;8.568;2023-06-22T04:28:04;6.10;;;5.47;;
25846;SDS011;13676;50.168;8.568;2023-06-22T04:30:32;10.70;;;6.85;;
25846;SDS011;13676;50.168;8.568;2023-06-22T04:32:57;6.25;;;5.47;;
25846;SDS011;13676;50.168;8.568;2023-06-22T04:35:23;7.60;;;4.95;;
25846;SDS011;13676;50.168;8.568;2023-06-22T04:37:52;6.35;;;5.20;;
25846;SDS011;13676;50.168;8.568;2023-06-22T04:40:20;6.95;;;5.53;;
25846;SDS011;13676;50.168;8.568;2023-06-22T04:42:49;6.75;;;4.90;;
25846;SDS011;13676;50.168;8.568;2023-06-22T04:45:18;6.45;;;5.45;;
25846;SDS011;13676;50.168;8.568;2023-06-22T04:47:46;9.07;;;5.00;;
25846;SDS011;13676;50.168;8.568;2023-06-22T04:50:12;7.30;;;5.15;;
25846;SDS011;13676;50.168;8.568;2023-06-22T04:52:37;5.68;;;5.07;;
25846;SDS011;13676;50.168;8.568;2023-06-22T04:55:03;8.48;;;6.00;;
25846;SDS011;13676;50.168;8.568;2023-06-22T04:57:29;5.88;;;5.15;;
25846;SDS011;13676;50.168;8.568;2023-06-22T04:59:58;10.50;;;6.30;;
25846;SDS011;13676;50.168;8.568;2023-06-22T05:02:36;7.93;;;6.45;;
25846;SDS011;13676;50.168;8.568;2023-06-22T05:05:02;8.50;;;6.40;;
25846;SDS011;13676;50.168;8.568;2023-06-22T05:07:32;7.65;;;5.68;;
25846;SDS011;13676;50.168;8.568;2023-06-22T05:10:00;8.00;;;6.20;;
25846;SDS011;13676;50.168;8.568;2023-06-22T05:12:29;9.55;;;6.85;;
25846;SDS011;13676;50.168;8.568;2023-06-22T05:14:55;10.57;;;6.07;;
25846;SDS011;13676;50.168;8.568;2023-06-22T05:17:21;10.02;;;6.95;;
25846;SDS011;13676;50.168;8.568;2023-06-22T05:19:48;7.68;;;6.00;;
25846;SDS011;13676;50.168;8.568;2023-06-22T05:22:14;7.88;;;6.20;;
25846;SDS011;13676;50.168;8.568;2023-06-22T05:24:40;9.77;;;6.63;;
25846;SDS011;13676;50.168;8.568;2023-06-22T05:27:05;8.88;;;6.75;;
25846;SDS011;13676;50.168;8.568;2023-06-22T05:29:32;7.53;;;6.15;;
25846;SDS011;13676;50.168;8.568;2023-06-22T05:31:57;8.15;;;6.18;;
25846;SDS011;13676;50.168;8.568;2023-06-22T05:34:23;6.43;;;5.63;;
25846;SDS011;13676;50.168;8.568;2023-06-22T05:36:48;11.77;;;6.22;;
25846;SDS011;13676;50.168;8.568;2023-06-22T05:39:14;9.13;;;7.20;;
25846;SDS011;13676;50.168;8.568;2023-06-22T05:41:40;7.32;;;5.97;;
25846;SDS011;13676;50.168;8.568;2023-06-22T05:44:05;7.13;;;6.05;;
25846;SDS011;13676;50.168;8.568;2023-06-22T05:46:30;10.00;;;5.90;;
25846;SDS011;13676;50.168;8.568;2023-06-22T05:48:56;7.82;;;6.35;;
25846;SDS011;13676;50.168;8.568;2023-06-22T05:51:21;9.05;;;6.65;;
25846;SDS011;13676;50.168;8.568;2023-06-22T05:53:47;7.60;;;6.20;;
25846;SDS011;13676;50.168;8.568;2023-06-22T05:56:15;10.48;;;6.00;;
25846;SDS011;13676;50.168;8.568;2023-06-22T05:58:41;8.48;;;6.35;;
25846;SDS011;13676;50.168;8.568;2023-06-22T06:01:07;9.75;;;6.72;;
25846;SDS011;13676;50.168;8.568;2023-06-22T06:03:32;7.75;;;6.20;;
25846;SDS011;13676;50.168;8.568;2023-06-22T06:05:58;9.80;;;6.25;;
25846;SDS011;13676;50.168;8.568;2023-06-22T06:08:24;12.48;;;7.10;;
25846;SDS011;13676;50.168;8.568;2023-06-22T06:10:50;7.70;;;6.90;;
25846;SDS011;13676;50.168;8.568;2023-06-22T06:13:18;7.93;;;6.40;;
25846;SDS011;13676;50.168;8.568;2023-06-22T06:15:43;8.80;;;6.60;;
25846;SDS011;13676;50.168;8.568;2023-06-22T06:18:09;9.80;;;6.53;;
25846;SDS011;13676;50.168;8.568;2023-06-22T06:20:34;7.13;;;5.95;;
25846;SDS011;13676;50.168;8.568;2023-06-22T06:23:01;7.22;;;6.03;;
25846;SDS011;13676;50.168;8.568;2023-06-22T06:25:27;7.30;;;5.97;;
25846;SDS011;13676;50.168;8.568;2023-06-22T06:27:52;7.25;;;6.10;;
25846;SDS011;13676;50.168;8.568;2023-06-22T06:30:19;9.18;;;6.78;;
25846;SDS011;13676;50.168;8.568;2023-06-22T06:32:46;8.63;;;6.80;;
25846;SDS011;13676;50.168;8.568;2023-06-22T06:35:12;8.75;;;6.60;;
25846;SDS011;13676;50.168;8.568;2023-06-22T06:37:40;7.70;;;6.35;;
25846;SDS011;13676;50.168;8.568;2023-06-22T06:40:06;9.00;;;5.90;;
25846;SDS011;13676;50.168;8.568;2023-06-22T06:42:40;7.00;;;6.30;;
25846;SDS011;13676;50.168;8.568;2023-06-22T06:45:20;7.82;;;6.28;;
25846;SDS011;13676;50.168;8.568;2023-06-22T06:47:47;7.38;;;5.97;;
25846;SDS011;13676;50.168;8.568;2023-06-22T06:50:13;8.48;;;6.70;;
25846;SDS011;13676;50.168;8.568;2023-06-22T06:52:39;9.18;;;6.15;;
25846;SDS011;13676;50.168;8.568;2023-06-22T06:55:04;8.68;;;7.05;;
25846;SDS011;13676;50.168;8.568;2023-06-22T06:57:34;8.35;;;6.40;;
25846;SDS011;13676;50.168;8.568;2023-06-22T07:00:00;6.95;;;6.03;;
25846;SDS011;13676;50.168;8.568;2023-06-22T07:02:27;7.55;;;6.65;;
25846;SDS011;13676;50.168;8.568;2023-06-22T07:04:55;7.82;;;5.82;;
25846;SDS011;13676;50.168;8.568;2023-06-22T07:07:20;7.95;;;5.78;;
25846;SDS011;13676;50.168;8.568;2023-06-22T07:09:46;8.32;;;6.55;;
25846;SDS011;13676;50.168;8.568;2023-06-22T07:12:11;7.40;;;5.93;;
25846;SDS011;13676;50.168;8.568;2023-06-22T07:14:37;6.47;;;5.57;;
25846;SDS011;13676;50.168;8.568;2023-06-22T07:17:02;6.43;;;5.82;;
25846;SDS011;13676;50.168;8.568;2023-06-22T07:19:28;8.68;;;6.78;;
25846;SDS011;13676;50.168;8.568;2023-06-22T07:21:53;8.40;;;6.93;;
25846;SDS011;13676;50.168;8.568;2023-06-22T07:24:20;6.80;;;5.93;;
25846;SDS011;13676;50.168;8.568;2023-06-22T07:26:49;6.65;;;5.78;;
25846;SDS011;13676;50.168;8.568;2023-06-22T07:29:18;7.07;;;6.35;;
25846;SDS011;13676;50.168;8.568;2023-06-22T07:31:48;6.63;;;5.85;;
25846;SDS011;13676;50.168;8.568;2023-06-22T07:34:14;9.63;;;5.45;;
25846;SDS011;13676;50.168;8.568;2023-06-22T07:36:40;6.70;;;5.72;;
25846;SDS011;13676;50.168;8.568;2023-06-22T07:39:05;8.25;;;6.47;;
25846;SDS011;13676;50.168;8.568;2023-06-22T07:41:31;9.10;;;6.05;;
25846;SDS011;13676;50.168;8.568;2023-06-22T07:43:57;6.10;;;5.50;;
25846;SDS011;13676;50.168;8.568;2023-06-22T07:46:23;7.03;;;5.78;;
25846;SDS011;13676;50.168;8.568;2023-06-22T07:48:49;7.75;;;6.78;;
25846;SDS011;13676;50.168;8.568;2023-06-22T07:51:14;6.78;;;5.55;;
25846;SDS011;13676;50.168;8.568;2023-06-22T07:53:40;7.50;;;5.53;;
25846;SDS011;13676;50.168;8.568;2023-06-22T07:56:06;8.20;;;6.45;;
25846;SDS011;13676;50.168;8.568;2023-06-22T07:58:32;7.05;;;5.93;;
25846;SDS011;13676;50.168;8.568;2023-06-22T08:00:57;9.07;;;6.32;;
25846;SDS011;13676;50.168;8.568;2023-06-22T08:03:23;8.20;;;6.55;;
25846;SDS011;13676;50.168;8.568;2023-06-22T08:05:48;7.15;;;5.78;;
25846;SDS011;13676;50.168;8.568;2023-06-22T08:08:14;6.75;;;5.32;;
25846;SDS011;13676;50.168;8.568;2023-06-22T08:10:40;9.02;;;5.80;;
25846;SDS011;13676;50.168;8.568;2023-06-22T08:13:07;8.10;;;5.78;;
25846;SDS011;13676;50.168;8.568;2023-06-22T08:15:32;7.68;;;5.32;;
25846;SDS011;13676;50.168;8.568;2023-06-22T08:17:57;7.18;;;5.88;;
25846;SDS011;13676;50.168;8.568;2023-06-22T08:20:24;5.60;;;5.00;;
25846;SDS011;13676;50.168;8.568;2023-06-22T08:22:49;9.23;;;5.68;;
25846;SDS011;13676;50.168;8.568;2023-06-22T08:25:17;5.80;;;5.20;;
25846;SDS011;13676;50.168;8.568;2023-06-22T08:27:45;6.40;;;5.47;;
25846;SDS011;13676;50.168;8.568;2023-06-22T08:30:12;6.90;;;5.28;;
25846;SDS011;13676;50.168;8.568;2023-06-22T08:32:38;8.63;;;5.03;;
25846;SDS011;13676;50.168;8.568;2023-06-22T08:35:03;7.43;;;4.90;;
25846;SDS011;13676;50.168;8.568;2023-06-22T08:37:31;9.52;;;5.20;;
25846;SDS011;13676;50.168;8.568;2023-06-22T08:40:00;6.32;;;5.20;;
25846;SDS011;13676;50.168;8.568;2023-06-22T08:42:27;6.25;;;5.05;;
25846;SDS011;13676;50.168;8.568;2023-06-22T08:44:52;6.68;;;5.05;;
25846;SDS011;13676;50.168;8.568;2023-06-22T08:47:18;13.43;;;6.07;;
25846;SDS011;13676;50.168;8.568;2023-06-22T08:49:44;7.65;;;5.15;;
25846;SDS011;13676;50.168;8.568;2023-06-22T08:52:10;5.47;;;4.97;;
25846;SDS011;13676;50.168;8.568;2023-06-22T08:54:35;6.03;;;4.88;;
25846;SDS011;13676;50.168;8.568;2023-06-22T08:57:01;5.95;;;5.00;;
25846;SDS011;13676;50.168;8.568;2023-06-22T08:59:27;7.13;;;4.90;;
25846;SDS011;13676;50.168;8.568;2023-06-22T09:01:53;7.70;;;5.32;;
25846;SDS011;13676;50.168;8.568;2023-06-22T09:04:18;6.32;;;5.15;;
25846;SDS011;13676;50.168;8.568;2023-06-22T09:06:47;6.78;;;5.68;;
25846;SDS011;13676;50.168;8.568;2023-06-22T09:09:13;7.72;;;5.72;;
25846;SDS011;13676;50.168;8.568;2023-06-22T09:11:39;7.27;;;5.40;;
25846;SDS011;13676;50.168;8.568;2023-06-22T09:14:05;5.47;;;4.95;;
25846;SDS011;13676;50.168;8.568;2023-06-22T09:16:32;6.70;;;5.00;;
25846;SDS011;13676;50.168;8.568;2023-06-22T09:18:57;8.95;;;5.32;;
25846;SDS011;13676;50.168;8.568;2023-06-22T09:21:23;6.97;;;4.95;;
25846;SDS011;13676;50.168;8.568;2023-06-22T09:23:49;5.72;;;5.10;;
25846;SDS011;13676;50.168;8.568;2023-06-22T09:26:19;6.07;;;5.00;;
25846;SDS011;13676;50.168;8.568;2023-06-22T09:28:45;7.45;;;5.93;;
25846;SDS011;13676;50.168;8.568;2023-06-22T09:31:10;6.00;;;4.97;;
25846;SDS011;13676;50.168;8.568;2023-06-22T09:33:36;8.23;;;5.18;;
25846;SDS011;13676;50.168;8.568;2023-06-22T09:36:22;6.32;;;4.80;;
25846;SDS011;13676;50.168;8.568;2023-06-22T09:38:48;5.25;;;4.75;;
25846;SDS011;13676;50.168;8.568;2023-06-22T09:41:14;5.78;;;5.18;;
25846;SDS011;13676;50.168;8.568;2023-06-22T09:43:40;5.30;;;4.75;;
25846;SDS011;13676;50.168;8.568;2023-06-22T09:46:06;6.28;;;4.45;;
25846;SDS011;13676;50.168;8.568;2023-06-22T09:48:32;5.63;;;4.20;;
25846;SDS011;13676;50.168;8.568;2023-06-22T09:50:57;7.22;;;6.13;;
25846;SDS011;13676;50.168;8.568;2023-06-22T09:53:23;4.20;;;3.90;;
25846;SDS011;13676;50.168;8.568;2023-06-22T09:55:50;4.90;;;4.45;;
25846;SDS011;13676;50.168;8.568;2023-06-22T09:58:15;7.03;;;5.40;;
25846;SDS011;13676;50.168;8.568;2023-06-22T10:00:41;4.80;;;4.25;;
25846;SDS011;13676;50.168;8.568;2023-06-22T10:03:10;6.53;;;5.20;;
25846;SDS011;13676;50.168;8.568;2023-06-22T10:05:36;6.95;;;5.20;;
25846;SDS011;13676;50.168;8.568;2023-06-22T10:08:01;6.20;;;4.57;;
25846;SDS011;13676;50.168;8.568;2023-06-22T10:10:26;10.57;;;5.20;;
25846;SDS011;13676;50.168;8.568;2023-06-22T10:12:55;5.45;;;4.75;;
25846;SDS011;13676;50.168;8.568;2023-06-22T10:15:22;5.70;;;5.15;;
25846;SDS011;13676;50.168;8.568;2023-06-22T10:17:47;5.97;;;4.90;;
25846;SDS011;13676;50.168;8.568;2023-06-22T10:20:13;5.10;;;4.65;;
25846;SDS011;13676;50.168;8.568;2023-06-22T10:22:39;6.35;;;4.57;;
25846;SDS011;13676;50.168;8.568;2023-06-22T10:25:05;8.85;;;5.32;;
25846;SDS011;13676;50.168;8.568;2023-06-22T10:27:31;6.35;;;5.70;;
25846;SDS011;13676;50.168;8.568;2023-06-22T10:29:57;6.05;;;4.68;;
25846;SDS011;13676;50.168;8.568;2023-06-22T10:32:22;9.30;;;5.32;;
25846;SDS011;13676;50.168;8.568;2023-06-22T10:34:49;6.25;;;4.90;;
25846;SDS011;13676;50.168;8.568;2023-06-22T10:37:14;6.05;;;5.22;;
25846;SDS011;13676;50.168;8.568;2023-06-22T10:39:39;7.53;;;4.50;;
25846;SDS011;13676;50.168;8.568;2023-06-22T10:42:05;8.43;;;5.00;;
25846;SDS011;13676;50.168;8.568;2023-06-22T10:44:31;5.57;;;4.97;;
25846;SDS011;13676;50.168;8.568;2023-06-22T10:46:56;6.95;;;4.75;;
25846;SDS011;13676;50.168;8.568;2023-06-22T10:49:22;11.02;;;5.18;;
25846;SDS011;13676;50.168;8.568;2023-06-22T10:51:47;5.50;;;3.92;;
25846;SDS011;13676;50.168;8.568;2023-06-22T10:54:13;5.63;;;3.45;;
25846;SDS011;13676;50.168;8.568;2023-06-22T10:56:40;7.35;;;4.32;;
25846;SDS011;13676;50.168;8.568;2023-06-22T10:59:05;3.47;;;3.17;;
25846;SDS011;13676;50.168;8.568;2023-06-22T11:01:31;10.55;;;4.70;;
25846;SDS011;13676;50.168;8.568;2023-06-22T11:03:56;6.68;;;3.97;;
25846;SDS011;13676;50.168;8.568;2023-06-22T11:06:22;6.88;;;4.28;;
25846;SDS011;13676;50.168;8.568;2023-06-22T11:08:47;6.15;;;3.88;;
25846;SDS011;13676;50.168;8.568;2023-06-22T11:11:13;7.80;;;4.30;;
25846;SDS011;13676;50.168;8.568;2023-06-22T11:13:40;6.95;;;4.05;;
25846;SDS011;13676;50.168;8.568;2023-06-22T11:16:05;6.20;;;4.30;;
25846;SDS011;13676;50.168;8.568;2023-06-22T11:18:31;7.18;;;4.30;;
25846;SDS011;13676;50.168;8.568;2023-06-22T11:20:58;5.47;;;4.25;;
25846;SDS011;13676;50.168;8.568;2023-06-22T11:23:23;6.22;;;4.32;;
25846;SDS011;13676;50.168;8.568;2023-06-22T11:25:51;6.35;;;3.90;;
25846;SDS011;13676;50.168;8.568;2023-06-22T11:28:16;7.65;;;5.15;;
25846;SDS011;13676;50.168;8.568;2023-06-22T11:30:42;5.47;;;4.28;;
25846;SDS011;13676;50.168;8.568;2023-06-22T11:33:07;6.93;;;4.47;;
25846;SDS011;13676;50.168;8.568;2023-06-22T11:35:33;4.25;;;3.40;;
25846;SDS011;13676;50.168;8.568;2023-06-22T11:38:00;6.68;;;4.10;;
25846;SDS011;13676;50.168;8.568;2023-06-22T11:40:25;5.00;;;3.90;;
25846;SDS011;13676;50.168;8.568;2023-06-22T11:42:51;8.60;;;3.75;;
25846;SDS011;13676;50.168;8.568;2023-06-22T11:45:17;8.88;;;3.83;;
25846;SDS011;13676;50.168;8.568;2023-06-22T11:47:43;6.93;;;3.90;;
25846;SDS011;13676;50.168;8.568;2023-06-22T11:50:08;8.50;;;4.00;;
25846;SDS011;13676;50.168;8.568;2023-06-22T11:52:34;6.60;;;4.00;;
25846;SDS011;13676;50.168;8.568;2023-06-22T11:55:01;5.40;;;3.65;;
25846;SDS011;13676;50.168;8.568;2023-06-22T11:57:28;8.25;;;4.07;;
25846;SDS011;13676;50.168;8.568;2023-06-22T11:59:54;7.85;;;4.03;;
25846;SDS011;13676;50.168;8.568;2023-06-22T12:02:20;8.80;;;4.20;;
25846;SDS011;13676;50.168;8.568;2023-06-22T12:04:45;6.72;;;3.65;;
25846;SDS011;13676;50.168;8.568;2023-06-22T12:07:11;6.07;;;4.00;;
25846;SDS011;13676;50.168;8.568;2023-06-22T12:09:36;7.07;;;4.03;;
25846;SDS011;13676;50.168;8.568;2023-06-22T12:12:03;8.37;;;4.00;;
25846;SDS011;13676;50.168;8.568;2023-06-22T12:14:29;7.47;;;4.05;;
25846;SDS011;13676;50.168;8.568;2023-06-22T12:16:55;8.48;;;4.30;;
25846;SDS011;13676;50.168;8.568;2023-06-22T12:19:21;10.68;;;4.78;;
25846;SDS011;13676;50.168;8.568;2023-06-22T12:21:47;6.10;;;4.00;;
25846;SDS011;13676;50.168;8.568;2023-06-22T12:24:13;8.43;;;3.83;;
25846;SDS011;13676;50.168;8.568;2023-06-22T12:26:39;6.35;;;3.85;;
25846;SDS011;13676;50.168;8.568;2023-06-22T12:29:05;6.07;;;4.37;;
25846;SDS011;13676;50.168;8.568;2023-06-22T12:31:31;10.20;;;4.90;;
25846;SDS011;13676;50.168;8.568;2023-06-22T12:33:56;5.30;;;3.73;;
25846;SDS011;13676;50.168;8.568;2023-06-22T12:36:22;5.23;;;3.93;;
25846;SDS011;13676;50.168;8.568;2023-06-22T12:38:49;6.80;;;4.63;;
25846;SDS011;13676;50.168;8.568;2023-06-22T12:41:15;4.80;;;4.00;;
25846;SDS011;13676;50.168;8.568;2023-06-22T12:43:40;8.17;;;5.00;;
25846;SDS011;13676;50.168;8.568;2023-06-22T12:46:05;6.13;;;3.83;;
25846;SDS011;13676;50.168;8.568;2023-06-22T12:48:31;6.47;;;4.50;;
25846;SDS011;13676;50.168;8.568;2023-06-22T12:50:56;5.43;;;4.10;;
25846;SDS011;13676;50.168;8.568;2023-06-22T12:53:22;8.47;;;4.37;;
25846;SDS011;13676;50.168;8.568;2023-06-22T12:55:50;7.43;;;4.65;;
25846;SDS011;13676;50.168;8.568;2023-06-22T12:58:15;10.90;;;3.72;;
25846;SDS011;13676;50.168;8.568;2023-06-22T13:00:41;7.57;;;4.13;;
25846;SDS011;13676;50.168;8.568;2023-06-22T13:03:07;8.47;;;4.43;;
25846;SDS011;13676;50.168;8.568;2023-06-22T13:05:32;6.83;;;4.13;;
25846;SDS011;13676;50.168;8.568;2023-06-22T13:08:00;9.32;;;4.10;;
25846;SDS011;13676;50.168;8.568;2023-06-22T13:10:25;10.20;;;5.03;;
25846;SDS011;13676;50.168;8.568;2023-06-22T13:12:51;9.43;;;5.00;;
25846;SDS011;13676;50.168;8.568;2023-06-22T13:15:17;6.68;;;4.35;;
25846;SDS011;13676;50.168;8.568;2023-06-22T13:17:42;5.53;;;3.67;;
25846;SDS011;13676;50.168;8.568;2023-06-22T13:20:08;5.73;;;3.97;;
25846;SDS011;13676;50.168;8.568;2023-06-22T13:22:34;11.57;;;4.13;;
25846;SDS011;13676;50.168;8.568;2023-06-22T13:25:08;10.18;;;4.63;;
25846;SDS011;13676;50.168;8.568;2023-06-22T13:27:36;8.05;;;5.03;;
25846;SDS011;13676;50.168;8.568;2023-06-22T13:30:02;7.90;;;4.13;;
25846;SDS011;13676;50.168;8.568;2023-06-22T13:32:29;4.40;;;3.95;;
25846;SDS011;13676;50.168;8.568;2023-06-22T13:34:54;9.97;;;4.73;;
25846;SDS011;13676;50.168;8.568;2023-06-22T13:37:20;9.00;;;4.90;;
25846;SDS011;13676;50.168;8.568;2023-06-22T13:39:45;12.77;;;4.87;;
25846;SDS011;13676;50.168;8.568;2023-06-22T13:42:10;11.13;;;5.13;;
25846;SDS011;13676;50.168;8.568;2023-06-22T13:44:37;8.48;;;4.88;;
25846;SDS011;13676;50.168;8.568;2023-06-22T13:47:02;9.63;;;4.83;;
25846;SDS011;13676;50.168;8.568;2023-06-22T13:49:29;7.00;;;4.03;;
25846;SDS011;13676;50.168;8.568;2023-06-22T13:51:55;9.23;;;4.93;;
25846;SDS011;13676;50.168;8.568;2023-06-22T13:54:20;7.63;;;4.63;;
25846;SDS011;13676;50.168;8.568;2023-06-22T13:56:47;5.55;;;3.90;;
25846;SDS011;13676;50.168;8.568;2023-06-22T13:59:12;6.37;;;3.50;;
25846;SDS011;13676;50.168;8.568;2023-06-22T14:01:38;7.13;;;4.47;;
25846;SDS011;13676;50.168;8.568;2023-06-22T14:04:05;9.43;;;4.68;;
25846;SDS011;13676;50.168;8.568;2023-06-22T14:06:30;8.47;;;4.33;;
25846;SDS011;13676;50.168;8.568;2023-06-22T14:08:56;6.43;;;4.13;;
25846;SDS011;13676;50.168;8.568;2023-06-22T14:11:21;7.40;;;4.33;;
25846;SDS011;13676;50.168;8.568;2023-06-22T14:13:47;4.80;;;3.60;;
25846;SDS011;13676;50.168;8.568;2023-06-22T14:16:12;5.37;;;4.00;;
25846;SDS011;13676;50.168;8.568;2023-06-22T14:18:37;5.17;;;3.87;;
25846;SDS011;13676;50.168;8.568;2023-06-22T14:21:03;10.80;;;5.20;;
25846;SDS011;13676;50.168;8.568;2023-06-22T14:23:28;4.83;;;3.93;;
25846;SDS011;13676;50.168;8.568;2023-06-22T14:25:54;7.23;;;3.60;;
25846;SDS011;13676;50.168;8.568;2023-06-22T14:28:19;8.60;;;4.37;;
25846;SDS011;13676;50.168;8.568;2023-06-22T14:30:45;7.37;;;4.50;;
25846;SDS011;13676;50.168;8.568;2023-06-22T14:33:10;11.30;;;4.80;;
25846;SDS011;13676;50.168;8.568;2023-06-22T14:35:37;6.07;;;3.80;;
25846;SDS011;13676;50.168;8.568;2023-06-22T14:38:03;6.30;;;4.10;;
25846;SDS011;13676;50.168;8.568;2023-06-22T14:40:28;8.60;;;4.80;;
25846;SDS011;13676;50.168;8.568;2023-06-22T14:42:54;10.07;;;4.63;;
25846;SDS011;13676;50.168;8.568;2023-06-22T14:45:21;9.40;;;4.38;;
25846;SDS011;13676;50.168;8.568;2023-06-22T14:47:48;11.50;;;4.38;;
25846;SDS011;13676;50.168;8.568;2023-06-22T14:50:15;11.87;;;3.53;;
25846;SDS011;13676;50.168;8.568;2023-06-22T14:52:43;14.43;;;4.57;;
25846;SDS011;13676;50.168;8.568;2023-06-22T14:55:09;10.93;;;3.50;;
25846;SDS011;13676;50.168;8.568;2023-06-22T14:57:34;7.17;;;3.53;;